Time;durP1;ratioP1;P1;durP2;ratioP2;P2;SDS_P1;SDS_P2;PMS_P1;PMS_P2;Temp;Humidity;BMP_temperature;BMP_pressure;BME280_temperature;BME280_humidity;BME280_pressure;Samples;Min_cycle;Max_cycle;Signal;HPM_P1;HPM_P2
2023/04/10 00:02:13;;;;;;;0.50;0.50;;;0.90;99.90;;;;;;5034025;28;20186;-66
2023/04/10 00:04:39;;;;;;;0.52;0.52;;;0.90;99.90;;;;;;5033488;28;20275;-66
2023/04/10 00:07:05;;;;;;;0.40;0.40;;;0.90;99.90;;;;;;5034211;28;20206;-65
2023/04/10 00:09:31;;;;;;;0.30;0.30;;;0.90;99.90;;;;;;5033843;28;20312;-66
2023/04/10 00:11:56;;;;;;;0.40;0.40;;;0.90;99.90;;;;;;5048241;28;20260;-65
2023/04/10 00:14:23;;;;;;;0.40;0.40;;;1.00;99.90;;;;;;5053751;28;20212;-66
2023/04/10 00:16:49;;;;;;;0.40;0.40;;;0.90;99.90;;;;;;5036170;28;20198;-67
2023/04/10 00:19:15;;;;;;;0.40;0.40;;;1.00;99.90;;;;;;5053528;28;20189;-66
2023/04/10 00:21:41;;;;;;;0.40;0.40;;;1.00;99.90;;;;;;5053452;28;20181;-66
2023/04/10 00:24:07;;;;;;;0.40;0.40;;;1.00;99.90;;;;;;5035469;28;20224;-66
2023/04/10 00:26:34;;;;;;;0.40;0.40;;;1.10;99.90;;;;;;5035308;28;20296;-66
2023/04/10 00:29:01;;;;;;;0.30;0.30;;;1.10;99.90;;;;;;5053759;28;20221;-66
2023/04/10 00:31:26;;;;;;;0.50;0.50;;;1.10;99.90;;;;;;5053236;28;20664;-66
2023/04/10 00:33:52;;;;;;;0.30;0.30;;;1.20;99.90;;;;;;5035662;28;20224;-66
2023/04/10 00:36:18;;;;;;;0.50;0.50;;;1.20;99.90;;;;;;5053286;28;20280;-66
2023/04/10 00:38:44;;;;;;;0.40;0.40;;;1.20;99.90;;;;;;5053408;28;20189;-66
2023/04/10 00:41:10;;;;;;;0.30;0.30;;;1.20;99.90;;;;;;5053599;28;20201;-66
2023/04/10 00:43:35;;;;;;;0.40;0.40;;;1.20;99.90;;;;;;5053160;28;20185;-66
2023/04/10 00:46:03;;;;;;;0.40;0.40;;;1.30;99.90;;;;;;5053074;28;20197;-66
2023/04/10 00:48:29;;;;;;;0.40;0.40;;;1.30;99.90;;;;;;5053014;28;20193;-65
2023/04/10 00:50:55;;;;;;;0.60;0.60;;;1.40;99.90;;;;;;5035280;28;20201;-66
2023/04/10 00:53:20;;;;;;;0.47;0.47;;;1.50;99.90;;;;;;5052800;28;20324;-66
2023/04/10 00:55:47;;;;;;;0.40;0.40;;;1.50;99.90;;;;;;5053230;28;20218;-66
2023/04/10 00:58:13;;;;;;;0.40;0.40;;;1.50;99.90;;;;;;5052940;28;20541;-65
2023/04/10 01:00:40;;;;;;;0.40;0.40;;;1.50;99.90;;;;;;5034815;28;20208;-70
2023/04/10 01:03:07;;;;;;;0.40;0.40;;;1.50;99.90;;;;;;5054962;23;20600;-72
2023/04/10 01:05:46;;;;;;;0.40;0.40;;;1.50;99.90;;;;;;5011008;28;20203;-72
2023/04/10 01:08:29;;;;;;;0.40;0.40;;;1.50;99.90;;;;;;5027518;28;20205;-73
2023/04/10 01:11:03;;;;;;;0.50;0.50;;;1.50;99.90;;;;;;5033138;28;20221;-72
2023/04/10 01:13:45;;;;;;;0.30;0.30;;;1.50;99.90;;;;;;5032833;28;20254;-73
2023/04/10 01:16:19;;;;;;;0.75;0.75;;;1.50;99.90;;;;;;5033164;28;20664;-72
2023/04/10 01:19:21;;;;;;;1.02;0.93;;;1.50;99.90;;;;;;5033362;28;20182;-72
2023/04/10 01:21:47;;;;;;;0.30;0.30;;;1.50;99.90;;;;;;5013376;28;20210;-72
2023/04/10 01:24:46;;;;;;;0.30;0.30;;;1.50;99.90;;;;;;5032888;28;20202;-72
2023/04/10 01:27:50;;;;;;;0.30;0.30;;;1.40;99.90;;;;;;5015286;28;20214;-72
2023/04/10 01:30:18;;;;;;;1.38;0.75;;;1.40;99.90;;;;;;5032687;28;20536;-71
2023/04/10 01:32:44;;;;;;;0.57;0.57;;;1.40;99.90;;;;;;5015068;28;20202;-72
2023/04/10 01:35:13;;;;;;;0.40;0.40;;;1.40;99.90;;;;;;5032591;28;20210;-72
2023/04/10 01:37:43;;;;;;;0.40;0.40;;;1.40;99.90;;;;;;5032494;28;20225;-72
2023/04/10 01:40:12;;;;;;;2.30;1.27;;;1.40;99.90;;;;;;5032723;28;20187;-72
2023/04/10 01:42:51;;;;;;;0.30;0.30;;;1.40;99.90;;;;;;5032208;28;20704;-72
2023/04/10 01:45:24;;;;;;;0.40;0.40;;;1.40;99.90;;;;;;5032293;28;20244;-72
2023/04/10 01:47:51;;;;;;;0.32;0.32;;;1.40;99.90;;;;;;5032624;28;20238;-71
2023/04/10 01:50:18;;;;;;;0.40;0.40;;;1.40;99.90;;;;;;5032433;28;20284;-71
2023/04/10 01:52:45;;;;;;;0.30;0.30;;;1.40;99.90;;;;;;5014461;28;20244;-72
2023/04/10 01:55:11;;;;;;;0.30;0.30;;;1.40;99.90;;;;;;5031917;28;20216;-72
2023/04/10 01:57:37;;;;;;;0.40;0.40;;;1.50;99.90;;;;;;5032342;28;20199;-72
2023/04/10 02:00:03;;;;;;;0.90;0.82;;;1.50;99.90;;;;;;5032146;28;20744;-72
2023/04/10 02:02:33;;;;;;;0.40;0.40;;;1.50;99.90;;;;;;5010243;28;20628;-72
2023/04/10 02:04:59;;;;;;;0.40;0.40;;;1.60;99.90;;;;;;5007614;28;20234;-72
2023/04/10 02:07:50;;;;;;;0.40;0.40;;;1.60;99.90;;;;;;4992688;28;20258;-71
2023/04/10 02:10:28;;;;;;;0.40;0.40;;;1.60;99.90;;;;;;4992693;28;20223;-71
2023/04/10 02:13:17;;;;;;;0.35;0.35;;;1.60;99.90;;;;;;4992728;28;20199;-71
2023/04/10 02:15:46;;;;;;;0.40;0.40;;;1.70;99.90;;;;;;5007547;28;20694;-72
2023/04/10 02:18:15;;;;;;;0.30;0.30;;;1.70;99.90;;;;;;4992665;28;20622;-71
2023/04/10 02:20:41;;;;;;;0.30;0.30;;;1.70;99.90;;;;;;4992603;28;20508;-72
2023/04/10 02:23:07;;;;;;;0.30;0.30;;;1.70;99.90;;;;;;4992282;28;20219;-72
2023/04/10 02:25:34;;;;;;;0.38;0.38;;;1.70;99.90;;;;;;5007136;28;20258;-72
2023/04/10 02:28:07;;;;;;;0.40;0.40;;;1.70;99.90;;;;;;5010520;28;20206;-72
2023/04/10 02:30:33;;;;;;;0.40;0.40;;;1.70;99.90;;;;;;5011742;28;20195;-72
2023/04/10 02:32:59;;;;;;;0.40;0.40;;;1.80;99.90;;;;;;5011936;28;20202;-71
2023/04/10 02:35:26;;;;;;;0.38;0.38;;;1.80;99.90;;;;;;5011856;28;20261;-72
2023/04/10 02:37:51;;;;;;;0.40;0.40;;;1.80;99.90;;;;;;5012101;28;20195;-71
2023/04/10 02:40:17;;;;;;;0.40;0.40;;;1.90;99.90;;;;;;5012392;28;20720;-72
2023/04/10 02:42:43;;;;;;;0.38;0.38;;;1.90;99.90;;;;;;5012070;28;20261;-72
2023/04/10 02:45:09;;;;;;;0.40;0.40;;;1.90;99.90;;;;;;5012233;28;20205;-72
2023/04/10 02:47:35;;;;;;;1.35;0.77;;;1.90;99.90;;;;;;5011930;28;20250;-71
2023/04/10 02:50:01;;;;;;;0.30;0.30;;;1.90;99.90;;;;;;5010695;28;20286;-72
2023/04/10 02:52:27;;;;;;;0.40;0.40;;;2.00;99.90;;;;;;5011307;28;20194;-72
2023/04/10 02:54:52;;;;;;;0.45;0.45;;;2.00;99.90;;;;;;5011898;28;20216;-71
2023/04/10 02:57:18;;;;;;;0.30;0.30;;;2.00;99.90;;;;;;5011651;28;20191;-72
2023/04/10 02:59:44;;;;;;;0.30;0.30;;;1.90;99.90;;;;;;5011632;28;20195;-71
2023/04/10 03:02:10;;;;;;;0.30;0.30;;;1.90;99.90;;;;;;5014563;28;20226;-72
2023/04/10 03:04:36;;;;;;;0.30;0.30;;;2.00;99.90;;;;;;5009927;28;20210;-73
2023/04/10 03:07:02;;;;;;;0.25;0.25;;;1.90;99.90;;;;;;5011428;28;20545;-72
2023/04/10 03:09:27;;;;;;;0.40;0.40;;;1.90;99.90;;;;;;5011034;28;20202;-72
2023/04/10 03:11:53;;;;;;;0.40;0.40;;;1.90;99.90;;;;;;4993883;28;20226;-73
2023/04/10 03:14:19;;;;;;;0.40;0.40;;;1.90;99.90;;;;;;5010206;28;20214;-72
2023/04/10 03:16:46;;;;;;;0.40;0.40;;;1.90;99.90;;;;;;5011665;28;20187;-72
2023/04/10 03:19:12;;;;;;;0.30;0.30;;;1.90;99.90;;;;;;5011852;28;20202;-71
2023/04/10 03:21:38;;;;;;;0.30;0.30;;;1.80;99.90;;;;;;5010191;28;20308;-71
2023/04/10 03:24:05;;;;;;;0.57;0.57;;;1.80;99.90;;;;;;5010421;28;20230;-73
2023/04/10 03:26:30;;;;;;;0.38;0.38;;;1.80;99.90;;;;;;5015817;28;20202;-72
2023/04/10 03:28:56;;;;;;;0.30;0.30;;;1.70;99.90;;;;;;5034790;28;20912;-72
2023/04/10 03:31:22;;;;;;;0.30;0.30;;;1.70;99.90;;;;;;5034685;28;20285;-72
2023/04/10 03:33:48;;;;;;;0.30;0.30;;;1.60;99.90;;;;;;5034136;28;20248;-72
2023/04/10 03:36:14;;;;;;;0.20;0.20;;;1.60;99.90;;;;;;5035258;28;20649;-71
2023/04/10 03:38:40;;;;;;;1.00;0.55;;;1.50;99.90;;;;;;5015180;28;20198;-72
2023/04/10 03:41:06;;;;;;;0.30;0.30;;;1.40;99.90;;;;;;5034996;28;20201;-71
2023/04/10 03:43:32;;;;;;;0.30;0.30;;;1.40;99.90;;;;;;5034499;28;20244;-73
2023/04/10 03:45:57;;;;;;;0.30;0.30;;;1.30;99.90;;;;;;5016988;28;20187;-73
2023/04/10 03:48:26;;;;;;;0.32;0.32;;;1.20;99.90;;;;;;5034527;28;20209;-72
2023/04/10 03:50:53;;;;;;;0.30;0.30;;;1.20;99.90;;;;;;5017045;28;20637;-72
2023/04/10 03:53:19;;;;;;;0.40;0.40;;;1.20;99.90;;;;;;5034456;28;20228;-72
2023/04/10 03:55:45;;;;;;;0.30;0.30;;;1.10;99.90;;;;;;5034489;28;20242;-73
2023/04/10 03:58:12;;;;;;;0.40;0.40;;;1.00;99.90;;;;;;5016762;28;20222;-72
2023/04/10 04:00:37;;;;;;;0.38;0.38;;;1.00;99.90;;;;;;5016563;28;20210;-72
2023/04/10 04:03:04;;;;;;;0.40;0.40;;;0.90;99.90;;;;;;5034068;28;20309;-71
2023/04/10 04:05:30;;;;;;;0.30;0.30;;;0.90;99.90;;;;;;5034027;28;20202;-71
2023/04/10 04:07:56;;;;;;;0.38;0.38;;;0.90;99.90;;;;;;5034429;28;20244;-71
2023/04/10 04:10:23;;;;;;;0.30;0.30;;;0.90;99.90;;;;;;5016333;28;20241;-71
2023/04/10 04:12:49;;;;;;;0.30;0.30;;;1.00;99.90;;;;;;5033751;28;20194;-71
2023/04/10 04:15:15;;;;;;;0.30;0.30;;;1.00;99.90;;;;;;5034128;28;20221;-72
2023/04/10 04:17:41;;;;;;;0.35;0.35;;;1.10;99.90;;;;;;5034007;28;20190;-72
2023/04/10 04:20:07;;;;;;;0.68;0.68;;;1.10;99.90;;;;;;5034481;28;20182;-72
2023/04/10 04:22:33;;;;;;;0.30;0.30;;;1.10;99.90;;;;;;5033723;28;20198;-71
2023/04/10 04:24:59;;;;;;;0.30;0.30;;;1.20;99.90;;;;;;5033982;28;20224;-72
2023/04/10 04:27:24;;;;;;;0.30;0.30;;;1.20;99.90;;;;;;5033891;28;20229;-72
2023/04/10 04:29:50;;;;;;;0.30;0.30;;;1.20;99.90;;;;;;5033738;28;20607;-72
2023/04/10 04:32:16;;;;;;;0.40;0.40;;;1.30;99.90;;;;;;5016179;28;20198;-73
2023/04/10 04:34:42;;;;;;;0.32;0.32;;;1.40;99.90;;;;;;5033839;28;20256;-71
2023/04/10 04:37:07;;;;;;;0.30;0.30;;;1.40;99.90;;;;;;5033712;28;20194;-72
2023/04/10 04:39:33;;;;;;;0.30;0.30;;;1.50;99.90;;;;;;5033478;28;20514;-72
2023/04/10 04:42:00;;;;;;;0.30;0.30;;;1.50;99.90;;;;;;5033688;28;20194;-72
2023/04/10 04:44:25;;;;;;;0.35;0.35;;;1.50;99.90;;;;;;5033467;28;20190;-72
2023/04/10 04:46:51;;;;;;;7.22;1.50;;;1.50;99.90;;;;;;5033670;28;20255;-72
2023/04/10 04:49:17;;;;;;;0.40;0.40;;;1.50;99.90;;;;;;5032164;28;20202;-72
2023/04/10 04:51:43;;;;;;;0.30;0.30;;;1.40;99.90;;;;;;5032715;28;20271;-72
2023/04/10 04:54:08;;;;;;;0.40;0.40;;;1.40;99.90;;;;;;5033476;28;20681;-72
2023/04/10 04:56:34;;;;;;;0.30;0.30;;;1.30;99.90;;;;;;5033575;28;20203;-72
2023/04/10 04:59:00;;;;;;;0.40;0.40;;;1.40;99.90;;;;;;5033337;28;20562;-72
2023/04/10 05:01:25;;;;;;;0.40;0.40;;;1.40;99.90;;;;;;5033130;28;20205;-72
2023/04/10 05:03:51;;;;;;;0.30;0.30;;;1.40;99.90;;;;;;5032888;28;20323;-72
2023/04/10 05:06:17;;;;;;;0.30;0.30;;;1.60;99.90;;;;;;5033397;28;20198;-71
2023/04/10 05:08:43;;;;;;;0.30;0.30;;;1.70;99.90;;;;;;5033295;28;20687;-71
2023/04/10 05:11:09;;;;;;;0.40;0.40;;;1.90;99.90;;;;;;5033191;28;20205;-72
2023/04/10 05:13:34;;;;;;;0.30;0.30;;;2.20;99.90;;;;;;5031443;28;20241;-72
2023/04/10 05:16:00;;;;;;;0.40;0.40;;;2.40;99.90;;;;;;5031784;28;20204;-72
2023/04/10 05:18:26;;;;;;;0.30;0.30;;;2.60;99.90;;;;;;5032804;28;20190;-72
2023/04/10 05:20:52;;;;;;;0.30;0.30;;;2.70;99.90;;;;;;5032880;28;20300;-72
2023/04/10 05:23:18;;;;;;;0.40;0.40;;;2.90;99.90;;;;;;5032495;28;20619;-73
2023/04/10 05:25:44;;;;;;;0.50;0.50;;;3.00;99.90;;;;;;5032734;28;20229;-73
2023/04/10 05:28:10;;;;;;;0.40;0.40;;;3.20;99.90;;;;;;5032143;28;20205;-72
2023/04/10 05:30:35;;;;;;;0.30;0.30;;;3.40;99.90;;;;;;5032991;28;20620;-71
2023/04/10 05:33:01;;;;;;;0.30;0.30;;;3.50;99.90;;;;;;5032835;28;20566;-72
2023/04/10 05:35:27;;;;;;;0.30;0.30;;;3.60;99.90;;;;;;5014720;28;20218;-72
2023/04/10 05:37:54;;;;;;;0.30;0.30;;;3.70;99.90;;;;;;5032506;28;20214;-71
2023/04/10 05:40:20;;;;;;;0.30;0.30;;;3.70;99.90;;;;;;5014747;28;20200;-72
2023/04/10 05:42:46;;;;;;;0.30;0.30;;;3.80;99.90;;;;;;5031101;28;20281;-71
2023/04/10 05:45:13;;;;;;;0.30;0.30;;;3.80;99.90;;;;;;5032246;28;20685;-71
2023/04/10 05:47:39;;;;;;;0.40;0.40;;;3.80;99.90;;;;;;5032440;28;20202;-71
2023/04/10 05:50:05;;;;;;;0.40;0.40;;;3.80;99.90;;;;;;5031984;28;20248;-71
2023/04/10 05:52:31;;;;;;;0.32;0.32;;;3.90;99.90;;;;;;5032281;28;20194;-71
2023/04/10 05:54:57;;;;;;;0.30;0.30;;;3.90;99.90;;;;;;5032481;28;20627;-72
2023/04/10 05:57:24;;;;;;;0.40;0.40;;;4.00;99.90;;;;;;5032041;28;20202;-72
2023/04/10 05:59:50;;;;;;;0.30;0.30;;;4.10;99.90;;;;;;5032344;28;20197;-71
2023/04/10 06:02:16;;;;;;;0.30;0.30;;;4.10;99.90;;;;;;5032312;28;20255;-71
2023/04/10 06:04:41;;;;;;;0.40;0.40;;;4.20;99.90;;;;;;5010514;28;20214;-72
2023/04/10 06:07:07;;;;;;;0.30;0.30;;;4.30;99.90;;;;;;5011547;28;20757;-71
2023/04/10 06:09:33;;;;;;;0.30;0.30;;;4.40;99.90;;;;;;5011701;28;20207;-72
2023/04/10 06:11:58;;;;;;;0.30;0.30;;;4.50;99.90;;;;;;5011924;28;20261;-72
2023/04/10 06:14:24;;;;;;;0.30;0.30;;;4.60;99.90;;;;;;5010340;28;20207;-72
2023/04/10 06:16:50;;;;;;;0.30;0.30;;;4.70;99.90;;;;;;5028767;28;20198;-72
2023/04/10 06:19:16;;;;;;;0.40;0.40;;;4.80;99.90;;;;;;5013554;28;20198;-73
2023/04/10 06:21:41;;;;;;;0.30;0.30;;;4.90;99.90;;;;;;5013689;28;20705;-72
2023/04/10 06:24:07;;;;;;;0.40;0.40;;;5.10;99.90;;;;;;5031914;28;20201;-72
2023/04/10 06:26:33;;;;;;;0.30;0.30;;;5.10;99.90;;;;;;5032583;28;20198;-71
2023/04/10 06:28:59;;;;;;;0.30;0.30;;;5.20;99.90;;;;;;5033109;28;20618;-71
2023/04/10 06:31:25;;;;;;;0.30;0.30;;;5.20;99.90;;;;;;5033211;28;20679;-74
2023/04/10 06:33:50;;;;;;;0.30;0.30;;;5.30;99.90;;;;;;5032975;28;20197;-71
2023/04/10 06:36:16;;;;;;;0.30;0.30;;;5.40;99.90;;;;;;5015677;28;20569;-72
2023/04/10 06:38:42;;;;;;;0.20;0.20;;;5.50;99.90;;;;;;5031529;28;20262;-72
2023/04/10 06:41:08;;;;;;;0.30;0.30;;;5.60;99.90;;;;;;5033005;28;20253;-72
2023/04/10 06:43:35;;;;;;;0.30;0.30;;;5.60;99.90;;;;;;5032376;28;20194;-71
2023/04/10 06:46:03;;;;;;;1.05;0.85;;;5.70;99.90;;;;;;5014445;28;20241;-72
2023/04/10 06:48:30;;;;;;;0.30;0.30;;;5.80;99.90;;;;;;5032787;28;20260;-72
2023/04/10 06:50:55;;;;;;;0.30;0.30;;;5.80;99.90;;;;;;5032866;28;20198;-72
2023/04/10 06:53:21;;;;;;;0.25;0.25;;;5.80;99.90;;;;;;5032559;28;20198;-72
2023/04/10 06:55:47;;;;;;;0.35;0.35;;;5.90;99.90;;;;;;5032829;28;20210;-72
2023/04/10 06:58:13;;;;;;;0.30;0.30;;;5.90;99.90;;;;;;5032769;28;20237;-72
2023/04/10 07:00:38;;;;;;;0.30;0.30;;;5.90;99.90;;;;;;5014839;28;20252;-71
2023/04/10 07:03:04;;;;;;;0.30;0.30;;;5.90;99.90;;;;;;5034617;28;20228;-71
2023/04/10 07:05:30;;;;;;;0.30;0.30;;;5.90;99.90;;;;;;5036003;28;20202;-73
2023/04/10 07:07:55;;;;;;;0.40;0.40;;;5.90;99.90;;;;;;5036664;28;20657;-70
2023/04/10 07:10:21;;;;;;;0.30;0.30;;;6.00;99.90;;;;;;5036436;28;20244;-71
2023/04/10 07:12:47;;;;;;;0.30;0.30;;;6.00;99.90;;;;;;5035322;28;20732;-72
2023/04/10 07:15:13;;;;;;;0.20;0.20;;;5.90;99.90;;;;;;5034949;28;20214;-73
2023/04/10 07:17:39;;;;;;;0.20;0.20;;;5.90;99.90;;;;;;5036307;28;20250;-74
2023/04/10 07:20:05;;;;;;;0.25;0.25;;;5.90;99.90;;;;;;5018382;28;20198;-73
2023/04/10 07:22:31;;;;;;;0.65;0.65;;;5.90;99.90;;;;;;5017907;28;20194;-74
2023/04/10 07:24:57;;;;;;;0.30;0.30;;;5.80;99.90;;;;;;5035932;28;20752;-75
2023/04/10 07:27:23;;;;;;;0.30;0.30;;;5.80;99.90;;;;;;5018365;28;20209;-74
2023/04/10 07:29:51;;;;;;;0.30;0.30;;;5.80;99.90;;;;;;5018425;28;20205;-72
2023/04/10 07:32:17;;;;;;;0.22;0.22;;;5.80;99.90;;;;;;5036107;28;20186;-73
2023/04/10 07:34:43;;;;;;;0.20;0.20;;;6.00;99.90;;;;;;5035864;28;20716;-73
2023/04/10 07:37:09;;;;;;;0.20;0.20;;;6.00;99.90;;;;;;5034840;28;20202;-73
2023/04/10 07:39:35;;;;;;;0.30;0.30;;;6.20;99.90;;;;;;5035700;28;20249;-73
2023/04/10 07:42:01;;;;;;;0.30;0.30;;;6.20;99.90;;;;;;5035850;28;20190;-73
2023/04/10 07:44:27;;;;;;;0.30;0.30;;;6.30;99.90;;;;;;5035642;28;20639;-72
2023/04/10 07:46:53;;;;;;;0.30;0.30;;;6.70;99.90;;;;;;5018096;28;20202;-72
2023/04/10 07:49:19;;;;;;;0.20;0.20;;;7.00;99.90;;;;;;5018281;28;20202;-73
2023/04/10 07:51:44;;;;;;;0.22;0.22;;;7.30;99.90;;;;;;5035615;28;20206;-73
2023/04/10 07:54:10;;;;;;;0.30;0.30;;;7.60;99.90;;;;;;5035666;28;20206;-73
2023/04/10 07:56:36;;;;;;;0.20;0.20;;;8.10;99.90;;;;;;5035688;28;20195;-73
2023/04/10 07:59:02;;;;;;;0.30;0.30;;;8.50;99.90;;;;;;5035612;28;20198;-73
2023/04/10 08:01:28;;;;;;;0.38;0.38;;;8.40;99.90;;;;;;5034461;28;20692;-73
2023/04/10 08:03:55;;;;;;;0.30;0.30;;;8.70;99.90;;;;;;5035037;28;20233;-75
2023/04/10 08:06:20;;;;;;;0.20;0.20;;;9.10;99.90;;;;;;5017690;28;20205;-74
2023/04/10 08:08:47;;;;;;;0.20;0.20;;;9.20;99.90;;;;;;5035595;28;20186;-75
2023/04/10 08:11:31;;;;;;;0.25;0.25;;;9.10;99.90;;;;;;5035520;28;20193;-74
2023/04/10 08:14:00;;;;;;;0.20;0.20;;;9.70;99.90;;;;;;5034893;28;20791;-74
2023/04/10 08:16:27;;;;;;;0.30;0.30;;;10.30;99.90;;;;;;5033822;28;20229;-75
2023/04/10 08:18:55;;;;;;;0.20;0.20;;;10.50;99.90;;;;;;5035263;28;20209;-73
2023/04/10 08:21:21;;;;;;;0.52;0.52;;;10.60;99.90;;;;;;5017488;28;20579;-74
2023/04/10 08:23:50;;;;;;;0.40;0.40;;;10.60;99.90;;;;;;5035387;28;20194;-73
2023/04/10 08:26:16;;;;;;;0.30;0.30;;;10.50;99.90;;;;;;5035262;28;20189;-74
2023/04/10 08:28:46;;;;;;;3.03;0.80;;;10.70;99.90;;;;;;5034948;28;20197;-73
2023/04/10 08:31:12;;;;;;;0.20;0.20;;;10.50;99.90;;;;;;5035240;28;20533;-74
2023/04/10 08:33:38;;;;;;;0.20;0.20;;;10.70;99.90;;;;;;5034808;28;20205;-74
2023/04/10 08:36:05;;;;;;;0.20;0.20;;;10.90;99.90;;;;;;5033827;28;20198;-73
2023/04/10 08:38:31;;;;;;;0.30;0.30;;;11.00;99.90;;;;;;5034672;28;20194;-73
2023/04/10 08:40:57;;;;;;;0.95;0.65;;;11.00;99.90;;;;;;5035057;28;20189;-73
2023/04/10 08:43:23;;;;;;;0.20;0.20;;;10.70;99.90;;;;;;5034538;28;20245;-74
2023/04/10 08:45:50;;;;;;;0.32;0.32;;;10.50;99.90;;;;;;5035377;28;20286;-73
2023/04/10 08:48:18;;;;;;;0.20;0.20;;;10.80;99.90;;;;;;5034731;28;20197;-74
2023/04/10 08:50:45;;;;;;;0.20;0.20;;;11.00;99.90;;;;;;5016435;28;20305;-74
2023/04/10 08:53:13;;;;;;;0.20;0.20;;;11.40;99.90;;;;;;5034619;28;20190;-75
2023/04/10 08:55:40;;;;;;;0.20;0.20;;;11.80;99.90;;;;;;5034346;28;20890;-75
2023/04/10 08:58:07;;;;;;;0.20;0.20;;;12.20;99.90;;;;;;5034694;28;20316;-75
2023/04/10 09:00:37;;;;;;;0.40;0.40;;;11.90;99.90;;;;;;5034565;28;20199;-73
2023/04/10 09:03:04;;;;;;;0.40;0.35;;;11.60;99.90;;;;;;5034574;28;20566;-75
2023/04/10 09:05:30;;;;;;;0.20;0.20;;;11.70;99.90;;;;;;5013062;28;20701;-74
2023/04/10 09:07:56;;;;;;;0.20;0.20;;;11.80;99.90;;;;;;5013430;28;20257;-73
2023/04/10 09:10:22;;;;;;;0.30;0.30;;;12.10;99.90;;;;;;5013108;28;20234;-75
2023/04/10 09:12:48;;;;;;;0.52;0.35;;;11.70;99.90;;;;;;5027807;28;20210;-73
2023/04/10 09:15:15;;;;;;;0.20;0.20;;;11.50;99.90;;;;;;5016273;28;20210;-73
2023/04/10 09:18:02;;;;;;;0.65;0.57;;;11.70;99.90;;;;;;5033905;28;20661;-74
2023/04/10 09:20:30;;;;;;;0.20;0.20;;;11.80;99.90;;;;;;5033667;28;20194;-74
2023/04/10 09:22:56;;;;;;;0.20;0.20;;;11.80;99.90;;;;;;5033938;28;20564;-73
2023/04/10 09:25:40;;;;;;;0.30;0.30;;;12.00;99.90;;;;;;5033010;28;20195;-74
2023/04/10 09:28:08;;;;;;;0.20;0.20;;;12.00;99.90;;;;;;5032736;28;20205;-73
2023/04/10 09:30:38;;;;;;;0.20;0.20;;;12.20;99.90;;;;;;5033920;28;20252;-74
2023/04/10 09:33:28;;;;;;;0.20;0.20;;;12.10;99.90;;;;;;5033934;28;20202;-75
2023/04/10 09:35:57;;;;;;;0.35;0.35;;;12.30;99.90;;;;;;5033876;28;20549;-74
2023/04/10 09:38:24;;;;;;;0.40;0.40;;;12.50;99.90;;;;;;5033871;28;20205;-75
2023/04/10 09:40:50;;;;;;;1.33;1.05;;;12.70;99.90;;;;;;5033969;28;20182;-73
2023/04/10 09:43:21;;;;;;;0.20;0.20;;;12.40;99.90;;;;;;5033820;28;20252;-73
2023/04/10 09:45:52;;;;;;;0.20;0.20;;;12.40;99.90;;;;;;5033663;28;20190;-74
2023/04/10 09:48:19;;;;;;;0.20;0.20;;;12.70;99.90;;;;;;5033657;28;20189;-74
2023/04/10 09:50:45;;;;;;;0.20;0.20;;;13.00;99.90;;;;;;5033267;28;20593;-74
2023/04/10 09:53:18;;;;;;;0.20;0.20;;;12.50;99.90;;;;;;5033199;28;20672;-74
2023/04/10 09:55:45;;;;;;;0.20;0.20;;;12.40;99.90;;;;;;5033163;28;20209;-74
2023/04/10 09:58:12;;;;;;;0.60;0.60;;;12.50;99.90;;;;;;5015227;28;20202;-75
2023/04/10 10:00:45;;;;;;;0.20;0.20;;;12.60;99.90;;;;;;5032789;28;20566;-73
2023/04/10 10:03:13;;;;;;;0.20;0.20;;;12.30;99.70;;;;;;5011531;28;20238;-74
2023/04/10 10:05:48;;;;;;;0.60;0.60;;;12.70;99.60;;;;;;5008532;28;21231;-73
2023/04/10 10:08:15;;;;;;;0.20;0.20;;;12.80;98.80;;;;;;5011890;28;20234;-74
2023/04/10 10:10:56;;;;;;;0.30;0.30;;;12.90;97.60;;;;;;5013448;28;20348;-74
2023/04/10 10:13:30;;;;;;;0.30;0.30;;;13.00;98.70;;;;;;5013294;28;20658;-74
2023/04/10 10:16:14;;;;;;;0.10;0.10;;;13.50;98.60;;;;;;5012125;28;20578;-74
2023/04/10 10:18:58;;;;;;;0.10;0.10;;;13.70;94.90;;;;;;5013415;28;20581;-74
2023/04/10 10:21:26;;;;;;;0.10;0.10;;;13.60;94.10;;;;;;5013230;28;20194;-74
2023/04/10 10:23:53;;;;;;;0.10;0.10;;;13.40;95.10;;;;;;5028770;28;20206;-74
2023/04/10 10:26:23;;;;;;;0.17;0.17;;;13.80;94.00;;;;;;5028575;28;20225;-74
2023/04/10 10:28:53;;;;;;;0.10;0.10;;;14.20;95.40;;;;;;5028847;28;20282;-74
2023/04/10 10:31:21;;;;;;;0.10;0.10;;;14.10;91.90;;;;;;5028219;28;20619;-74
2023/04/10 10:33:47;;;;;;;0.10;0.10;;;14.10;93.10;;;;;;5028476;28;20673;-74
2023/04/10 10:36:17;;;;;;;0.20;0.20;;;13.90;93.10;;;;;;5013536;28;20672;-74
2023/04/10 10:38:52;;;;;;;0.10;0.10;;;14.20;92.20;;;;;;5019561;28;20186;-73
2023/04/10 10:41:37;;;;;;;0.20;0.20;;;13.90;89.10;;;;;;5034976;28;20198;-74
2023/04/10 10:44:13;;;;;;;0.30;0.30;;;13.60;90.70;;;;;;5019898;28;20201;-74
2023/04/10 10:46:48;;;;;;;0.20;0.20;;;13.80;89.10;;;;;;5019642;28;20577;-74
2023/04/10 10:49:14;;;;;;;0.40;0.40;;;13.70;86.50;;;;;;5019836;28;20186;-75
2023/04/10 10:51:48;;;;;;;0.40;0.40;;;13.70;90.20;;;;;;5019636;28;20202;-74
2023/04/10 10:54:34;;;;;;;0.75;0.75;;;13.30;87.40;;;;;;5019493;28;20724;-74
2023/04/10 10:57:01;;;;;;;0.57;0.57;;;13.10;87.60;;;;;;5034931;28;20194;-75
2023/04/10 10:59:42;;;;;;;0.40;0.40;;;13.30;90.20;;;;;;5034561;28;20206;-74
2023/04/10 11:02:18;;;;;;;0.95;0.65;;;13.50;88.10;;;;;;5022436;28;20588;-74
2023/04/10 11:04:50;;;;;;;0.40;0.40;;;13.20;90.60;;;;;;5038271;28;20260;-74
2023/04/10 11:07:16;;;;;;;0.70;0.70;;;13.30;90.00;;;;;;5039274;28;20553;-75
2023/04/10 11:09:46;;;;;;;0.50;0.50;;;13.00;88.50;;;;;;5021276;28;20202;-75
2023/04/10 11:12:12;;;;;;;0.70;0.70;;;13.00;89.80;;;;;;5021838;28;20588;-75
2023/04/10 11:14:39;;;;;;;0.40;0.40;;;13.20;90.10;;;;;;5021421;28;20297;-75
2023/04/10 11:17:05;;;;;;;0.40;0.40;;;13.70;90.90;;;;;;5021491;28;20201;-74
2023/04/10 11:20:00;;;;;;;0.40;0.40;;;13.50;89.40;;;;;;5039062;28;20204;-74
2023/04/10 11:22:26;;;;;;;0.52;0.52;;;13.30;88.60;;;;;;5039119;28;20194;-75
2023/04/10 11:24:58;;;;;;;0.40;0.40;;;13.20;89.60;;;;;;5038011;28;20209;-75
2023/04/10 11:27:45;;;;;;;0.50;0.50;;;13.40;89.90;;;;;;5038828;28;20204;-75
2023/04/10 11:30:33;;;;;;;0.40;0.40;;;13.20;90.10;;;;;;5038991;28;20193;-75
2023/04/10 11:33:01;;;;;;;0.50;0.50;;;13.10;89.30;;;;;;5021464;28;20203;-76
2023/04/10 11:35:27;;;;;;;0.50;0.50;;;13.00;87.20;;;;;;5038593;28;20202;-73
2023/04/10 11:38:09;;;;;;;0.35;0.35;;;12.90;86.30;;;;;;5039099;28;20192;-72
2023/04/10 11:40:35;;;;;;;0.50;0.50;;;12.80;88.60;;;;;;5038870;28;20668;-74
2023/04/10 11:43:14;;;;;;;0.43;0.43;;;12.90;89.30;;;;;;5021499;28;20268;-74
2023/04/10 11:45:40;;;;;;;0.50;0.50;;;13.00;89.50;;;;;;5021231;28;20202;-75
2023/04/10 11:48:06;;;;;;;0.40;0.40;;;13.00;87.00;;;;;;5019312;28;20281;-75
2023/04/10 11:50:34;;;;;;;0.43;0.43;;;12.90;87.50;;;;;;5018098;28;20605;-74
2023/04/10 11:53:00;;;;;;;1.17;0.80;;;13.40;88.40;;;;;;5035816;28;20190;-75
2023/04/10 11:55:39;;;;;;;0.47;0.47;;;13.70;84.00;;;;;;5017770;28;20758;-74
2023/04/10 11:58:21;;;;;;;0.82;0.82;;;13.30;83.80;;;;;;5035795;28;20648;-74
2023/04/10 12:00:57;;;;;;;0.40;0.40;;;13.00;85.70;;;;;;5017591;28;20193;-75
2023/04/10 12:03:33;;;;;;;0.50;0.50;;;13.10;85.40;;;;;;5035109;28;20249;-75
2023/04/10 12:05:59;;;;;;;0.40;0.40;;;13.20;86.00;;;;;;5015805;28;20704;-75
2023/04/10 12:08:48;;;;;;;0.40;0.40;;;13.50;83.30;;;;;;5015679;28;20198;-74
2023/04/10 12:11:17;;;;;;;0.40;0.40;;;13.80;84.80;;;;;;5017037;28;20199;-75
2023/04/10 12:13:43;;;;;;;0.43;0.43;;;13.40;82.90;;;;;;5035413;28;20201;-75
2023/04/10 12:16:10;;;;;;;0.70;0.70;;;13.30;83.60;;;;;;5035399;28;20580;-75
2023/04/10 12:18:37;;;;;;;0.40;0.40;;;13.30;86.20;;;;;;5035099;28;20713;-75
2023/04/10 12:21:03;;;;;;;0.50;0.50;;;14.00;86.00;;;;;;5034762;28;20699;-75
2023/04/10 12:23:30;;;;;;;0.40;0.40;;;13.90;85.50;;;;;;5034860;28;20194;-75
2023/04/10 12:26:16;;;;;;;0.90;0.85;;;13.70;82.30;;;;;;5017585;28;20206;-75
2023/04/10 12:28:52;;;;;;;0.43;0.43;;;13.80;84.80;;;;;;5035018;28;20680;-74
2023/04/10 12:31:18;;;;;;;0.40;0.40;;;13.80;84.50;;;;;;5035157;28;20196;-74
2023/04/10 12:33:45;;;;;;;0.40;0.40;;;13.60;83.20;;;;;;5035249;28;20198;-75
2023/04/10 12:36:22;;;;;;;0.40;0.40;;;13.90;83.10;;;;;;5035034;28;20214;-74
2023/04/10 12:38:48;;;;;;;0.40;0.40;;;13.80;81.70;;;;;;5035103;28;20193;-75
2023/04/10 12:41:21;;;;;;;0.40;0.40;;;13.80;83.80;;;;;;5035017;28;20186;-75
2023/04/10 12:43:47;;;;;;;0.50;0.50;;;13.80;82.60;;;;;;5034964;28;20723;-75
2023/04/10 12:46:23;;;;;;;0.40;0.40;;;13.60;84.90;;;;;;5017527;28;20198;-75
2023/04/10 12:48:49;;;;;;;0.40;0.40;;;13.90;82.10;;;;;;5034923;28;20186;-75
2023/04/10 12:51:15;;;;;;;0.50;0.50;;;14.00;83.30;;;;;;5016986;28;20368;-75
2023/04/10 12:53:45;;;;;;;0.40;0.40;;;14.40;80.60;;;;;;5016716;28;20596;-75
2023/04/10 12:56:12;;;;;;;0.45;0.45;;;14.40;83.50;;;;;;5016106;28;20209;-75
2023/04/10 12:58:38;;;;;;;0.40;0.40;;;14.70;81.10;;;;;;5016849;28;20285;-75
2023/04/10 13:01:06;;;;;;;0.40;0.40;;;14.60;81.70;;;;;;5033527;28;20198;-76